createdAt,value
2023-03-17T00:01:47.171Z,0.60
2023-03-17T00:04:13.352Z,0.30
2023-03-17T00:06:39.490Z,0.14
2023-03-17T00:09:05.938Z,0.32
2023-03-17T00:11:32.129Z,-0.13
2023-03-17T00:13:58.359Z,-0.18
2023-03-17T00:16:24.560Z,-0.30
2023-03-17T00:18:50.719Z,-0.14
2023-03-17T00:21:17.192Z,-0.00
2023-03-17T00:23:43.430Z,-0.11
2023-03-17T00:26:09.729Z,-0.05
2023-03-17T00:28:35.837Z,-0.57
2023-03-17T00:31:01.976Z,-0.65
2023-03-17T00:33:28.145Z,-0.51
2023-03-17T00:35:54.660Z,-0.89
2023-03-17T00:38:20.830Z,-0.87
2023-03-17T00:40:46.955Z,-0.77
2023-03-17T00:43:13.092Z,-0.37
2023-03-17T00:45:39.187Z,-0.26
2023-03-17T00:48:05.323Z,-0.57
2023-03-17T00:50:31.990Z,-0.64
2023-03-17T00:52:58.660Z,0.28
2023-03-17T00:55:25.079Z,-0.61
2023-03-17T00:57:51.278Z,-0.41
2023-03-17T01:00:17.716Z,-0.24
2023-03-17T01:02:43.885Z,-0.02
2023-03-17T01:05:10.097Z,-0.25
2023-03-17T01:07:36.257Z,-0.48
2023-03-17T01:10:02.415Z,-0.65
2023-03-17T01:12:28.647Z,-0.12
2023-03-17T01:14:54.985Z,0.31
2023-03-17T01:17:21.121Z,-0.26
2023-03-17T01:19:47.231Z,-0.67
2023-03-17T01:22:13.365Z,-0.56
2023-03-17T01:24:39.596Z,-0.45
2023-03-17T01:27:05.746Z,-0.80
2023-03-17T01:29:31.932Z,-0.71
2023-03-17T01:31:58.145Z,-0.65
2023-03-17T01:34:24.316Z,-0.25
2023-03-17T01:36:50.747Z,-0.10
2023-03-17T01:39:16.890Z,-0.75
2023-03-17T01:41:42.987Z,-1.11
2023-03-17T01:44:09.135Z,-0.95
2023-03-17T01:46:35.334Z,-0.66
2023-03-17T01:49:01.715Z,-0.93
2023-03-17T01:51:27.849Z,-1.04
2023-03-17T01:53:53.945Z,0.19
2023-03-17T01:56:20.082Z,0.25
2023-03-17T01:58:46.227Z,0.05
2023-03-17T02:01:12.474Z,0.05
2023-03-17T02:03:38.629Z,-0.65
2023-03-17T02:06:04.791Z,-0.96
2023-03-17T02:08:31.036Z,-0.89
2023-03-17T02:10:57.345Z,-0.26
2023-03-17T02:13:23.522Z,0.24
2023-03-17T02:15:49.976Z,-0.64
2023-03-17T02:18:16.137Z,-0.79
2023-03-17T02:20:42.268Z,-0.99
2023-03-17T02:23:08.412Z,-0.80
2023-03-17T02:25:34.531Z,-0.65
2023-03-17T02:28:00.678Z,-0.65
2023-03-17T02:30:26.830Z,-0.37
2023-03-17T02:32:53.025Z,0.19
2023-03-17T02:35:19.178Z,-0.30
2023-03-17T02:37:45.412Z,-0.57
2023-03-17T02:40:11.545Z,-0.60
2023-03-17T02:42:37.700Z,-0.09
2023-03-17T02:45:03.840Z,0.35
2023-03-17T02:47:30.092Z,0.69
2023-03-17T02:49:56.396Z,-0.13
2023-03-17T02:52:22.843Z,-0.85
2023-03-17T02:54:49.065Z,-0.50
2023-03-17T02:57:15.185Z,-0.11
2023-03-17T02:59:41.323Z,-0.15
2023-03-17T03:02:07.465Z,-0.04
2023-03-17T03:04:33.695Z,0.10
2023-03-17T03:06:59.800Z,0.02
2023-03-17T03:09:26.008Z,-0.20
2023-03-17T03:11:52.158Z,-0.75
2023-03-17T03:14:18.299Z,-1.12
2023-03-17T03:16:44.746Z,-1.26
2023-03-17T03:19:10.855Z,-0.67
2023-03-17T03:21:37.166Z,-0.99
2023-03-17T03:24:03.286Z,-1.33
2023-03-17T03:26:29.517Z,-1.32
2023-03-17T03:28:55.648Z,-1.22
2023-03-17T03:31:21.833Z,-1.11
2023-03-17T03:33:48.317Z,-1.12
2023-03-17T03:36:14.620Z,-1.17
2023-03-17T03:38:40.872Z,-1.03
2023-03-17T03:41:07.008Z,0.10
2023-03-17T03:43:33.446Z,-0.28
2023-03-17T03:45:59.591Z,-0.73
2023-03-17T03:48:25.873Z,-0.63
2023-03-17T03:50:52.315Z,-0.78
2023-03-17T03:53:18.512Z,0.22
2023-03-17T03:55:44.960Z,-0.29
2023-03-17T03:58:11.094Z,-0.97
2023-03-17T04:00:37.272Z,-1.01
2023-03-17T04:03:03.550Z,-0.26
2023-03-17T04:05:29.741Z,-0.13
2023-03-17T04:07:56.054Z,-0.01
2023-03-17T04:10:22.145Z,-0.51
2023-03-17T04:12:48.284Z,-0.71
2023-03-17T04:15:14.445Z,-0.78
2023-03-17T04:17:40.576Z,-1.18
2023-03-17T04:20:06.708Z,-0.43
2023-03-17T04:22:32.928Z,-0.51
2023-03-17T04:24:59.360Z,-0.88
2023-03-17T04:27:25.832Z,-0.48
2023-03-17T04:29:52.133Z,-0.92
2023-03-17T04:32:18.244Z,-0.34
2023-03-17T04:34:44.481Z,-0.37
2023-03-17T04:37:10.639Z,-0.95
2023-03-17T04:39:37.072Z,-0.99
2023-03-17T04:42:03.306Z,-1.22
2023-03-17T04:44:29.753Z,-1.07
2023-03-17T04:46:55.902Z,-0.86
2023-03-17T04:49:22.020Z,0.24
2023-03-17T04:51:48.243Z,0.59
2023-03-17T04:54:14.343Z,-0.14
2023-03-17T04:56:40.858Z,-0.40
2023-03-17T04:59:06.964Z,-0.70
2023-03-17T05:01:33.105Z,-0.57
2023-03-17T05:03:59.341Z,0.27
2023-03-17T05:06:25.526Z,-0.09
2023-03-17T05:08:51.677Z,0.52
2023-03-17T05:11:17.837Z,0.07
2023-03-17T05:13:43.997Z,-0.71
2023-03-17T05:16:10.165Z,-0.03
2023-03-17T05:18:36.429Z,-0.02
2023-03-17T05:21:02.550Z,-0.75
2023-03-17T05:23:28.687Z,-0.45
2023-03-17T05:25:55.028Z,0.28
2023-03-17T05:28:21.184Z,-1.25
2023-03-17T05:30:47.688Z,-1.00
2023-03-17T05:33:13.931Z,0.49
2023-03-17T05:35:40.098Z,0.68
2023-03-17T05:38:06.193Z,-0.96
2023-03-17T05:40:32.808Z,-0.43
2023-03-17T05:42:59.121Z,0.37
2023-03-17T05:45:25.358Z,-0.08
2023-03-17T05:47:51.540Z,0.04
2023-03-17T05:50:17.784Z,0.44
2023-03-17T05:52:44.239Z,0.15
2023-03-17T05:55:10.449Z,0.69
2023-03-17T05:57:36.588Z,1.02
2023-03-17T06:00:03.038Z,0.51
2023-03-17T06:02:29.161Z,0.64
2023-03-17T06:04:55.290Z,0.40
2023-03-17T06:07:21.532Z,0.26
2023-03-17T06:09:47.658Z,0.34
2023-03-17T06:12:14.092Z,0.45
2023-03-17T06:14:40.370Z,0.60
2023-03-17T06:17:06.618Z,1.37
2023-03-17T06:19:32.763Z,1.50
2023-03-17T06:21:58.951Z,1.45
2023-03-17T06:24:25.093Z,1.09
2023-03-17T06:26:51.249Z,1.31
2023-03-17T06:29:17.418Z,1.68
2023-03-17T06:31:43.559Z,2.12
2023-03-17T06:34:09.797Z,1.67
2023-03-17T06:36:38.256Z,1.98
2023-03-17T06:39:04.797Z,1.24
2023-03-17T06:41:31.237Z,1.21
2023-03-17T06:43:57.663Z,1.14
2023-03-17T06:46:23.863Z,0.78
2023-03-17T06:48:50.318Z,1.07
2023-03-17T06:51:16.781Z,1.07
2023-03-17T06:53:43.178Z,1.07
2023-03-17T06:56:17.211Z,1.24
2023-03-17T06:58:53.604Z,1.16
2023-03-17T07:01:19.854Z,1.23
2023-03-17T07:03:46.183Z,1.34
2023-03-17T07:06:12.351Z,1.52
2023-03-17T07:08:38.776Z,1.11
2023-03-17T07:11:04.890Z,0.93
2023-03-17T07:13:31.008Z,0.76
2023-03-17T07:16:00.440Z,0.78
2023-03-17T07:18:26.856Z,1.20
2023-03-17T07:20:53.128Z,1.55
2023-03-17T07:23:19.372Z,1.78
2023-03-17T07:25:45.613Z,2.64
2023-03-17T07:28:11.744Z,3.68
2023-03-17T07:30:37.898Z,4.96
2023-03-17T07:33:04.428Z,7.44
2023-03-17T07:35:31.069Z,9.67
2023-03-17T07:37:57.322Z,11.64
2023-03-17T07:40:23.539Z,12.06
2023-03-17T07:42:49.749Z,12.85
2023-03-17T07:45:16.211Z,13.82
2023-03-17T07:47:42.366Z,14.53
2023-03-17T07:50:08.574Z,13.71
2023-03-17T07:52:34.805Z,15.45
2023-03-17T07:55:01.005Z,13.79
2023-03-17T07:57:27.373Z,12.02
2023-03-17T07:59:53.681Z,12.41
2023-03-17T08:02:19.936Z,12.49
2023-03-17T08:04:46.148Z,11.33
2023-03-17T08:07:12.708Z,10.21
2023-03-17T08:09:38.832Z,10.91
2023-03-17T08:12:05.159Z,11.51
2023-03-17T08:14:31.312Z,10.80
2023-03-17T08:16:57.611Z,11.51
2023-03-17T08:19:23.866Z,11.95
2023-03-17T08:21:49.960Z,10.44
2023-03-17T08:24:16.101Z,10.96
2023-03-17T08:26:42.288Z,11.59
2023-03-17T08:29:08.562Z,11.96
2023-03-17T08:31:35.088Z,11.64
2023-03-17T08:34:01.254Z,12.42
2023-03-17T08:36:27.511Z,12.94
2023-03-17T08:38:53.660Z,13.02
2023-03-17T08:41:19.969Z,13.47
2023-03-17T08:43:46.120Z,12.54
2023-03-17T08:46:12.509Z,13.11
2023-03-17T08:48:38.705Z,13.20
2023-03-17T08:51:04.841Z,13.38
2023-03-17T08:53:30.968Z,14.33
2023-03-17T08:55:57.643Z,14.28
2023-03-17T08:58:24.113Z,15.77
2023-03-17T09:00:50.268Z,15.67
2023-03-17T09:03:16.516Z,15.05
2023-03-17T09:05:42.954Z,14.53
2023-03-17T09:08:09.479Z,15.24
2023-03-17T09:10:35.743Z,16.98
2023-03-17T09:13:01.911Z,19.20
2023-03-17T09:15:28.360Z,19.21
2023-03-17T09:17:54.662Z,19.51
2023-03-17T09:20:21.127Z,19.64
2023-03-17T09:22:47.289Z,22.12
2023-03-17T09:25:13.541Z,22.28
2023-03-17T09:27:40.274Z,23.62
2023-03-17T09:30:06.587Z,23.85
2023-03-17T09:32:32.750Z,26.03
2023-03-17T09:34:58.915Z,26.51
2023-03-17T09:37:25.122Z,26.27
2023-03-17T09:39:51.359Z,25.92
2023-03-17T09:42:17.498Z,22.45
2023-03-17T09:44:43.675Z,23.32
2023-03-17T09:47:09.805Z,23.69
2023-03-17T09:49:36.048Z,27.07
2023-03-17T09:52:02.489Z,30.09
2023-03-17T09:54:28.949Z,29.70
2023-03-17T09:56:55.277Z,28.32
2023-03-17T09:59:21.433Z,23.14
2023-03-17T10:01:47.612Z,23.62
2023-03-17T10:04:13.777Z,19.60
2023-03-17T10:06:39.930Z,17.20
2023-03-17T10:09:06.360Z,16.86
2023-03-17T10:11:32.500Z,15.77
2023-03-17T10:13:58.967Z,15.65
2023-03-17T10:16:25.106Z,15.95
2023-03-17T10:18:51.589Z,15.32
2023-03-17T10:21:18.018Z,15.19
2023-03-17T10:23:44.303Z,15.21
2023-03-17T10:26:10.471Z,15.18
2023-03-17T10:28:36.865Z,15.04
2023-03-17T10:31:03.028Z,15.02
2023-03-17T10:33:29.214Z,14.62
2023-03-17T10:35:55.528Z,14.41
2023-03-17T10:38:21.690Z,14.61
2023-03-17T10:40:48.137Z,14.06
2023-03-17T10:43:14.640Z,14.20
2023-03-17T10:45:43.277Z,14.28
2023-03-17T10:48:10.270Z,13.98
2023-03-17T10:50:36.421Z,14.15
2023-03-17T10:53:02.528Z,13.99
2023-03-17T10:55:28.733Z,14.28
2023-03-17T10:57:54.835Z,14.37
2023-03-17T11:00:21.074Z,14.58
2023-03-17T11:02:47.248Z,14.60
2023-03-17T11:05:13.702Z,14.37
2023-03-17T11:07:39.871Z,14.83
2023-03-17T11:10:06.065Z,15.29
2023-03-17T11:12:32.294Z,14.97
2023-03-17T11:14:58.720Z,14.63
2023-03-17T11:17:24.833Z,14.40
2023-03-17T11:19:50.963Z,14.66
2023-03-17T11:22:17.133Z,14.49
2023-03-17T11:24:43.371Z,14.25
2023-03-17T11:27:09.803Z,13.70
2023-03-17T11:29:36.070Z,13.82
2023-03-17T11:32:02.552Z,13.77
2023-03-17T11:34:28.695Z,14.07
2023-03-17T11:36:57.015Z,13.99
2023-03-17T11:39:24.326Z,13.78
2023-03-17T11:41:50.644Z,13.44
2023-03-17T11:44:16.787Z,13.60
2023-03-17T11:46:42.965Z,13.83
2023-03-17T11:49:09.221Z,13.81
2023-03-17T11:51:35.514Z,14.09
2023-03-17T11:54:01.745Z,13.83
2023-03-17T11:56:27.905Z,14.09
2023-03-17T11:58:54.114Z,13.71
2023-03-17T12:01:20.197Z,13.77
2023-03-17T12:03:46.488Z,13.66
2023-03-17T12:06:12.758Z,13.78
2023-03-17T12:08:38.958Z,13.80
2023-03-17T12:11:05.115Z,13.79
2023-03-17T12:13:31.483Z,13.37
2023-03-17T12:15:57.835Z,13.29
2023-03-17T12:18:23.998Z,13.12
2023-03-17T12:20:50.168Z,13.32
2023-03-17T12:23:16.320Z,13.36
2023-03-17T12:25:42.546Z,13.50
2023-03-17T12:28:08.850Z,13.56
2023-03-17T12:30:35.289Z,13.91
2023-03-17T12:33:01.472Z,14.09
2023-03-17T12:35:27.663Z,14.06
2023-03-17T12:37:53.803Z,14.12
2023-03-17T12:40:19.897Z,14.08
2023-03-17T12:42:46.057Z,14.13
2023-03-17T12:45:12.305Z,13.98
2023-03-17T12:47:38.457Z,14.31
2023-03-17T12:50:04.561Z,14.11
2023-03-17T12:52:30.839Z,14.14
2023-03-17T12:54:56.992Z,14.43
2023-03-17T12:57:23.100Z,14.23
2023-03-17T12:59:49.312Z,13.92
2023-03-17T13:02:15.477Z,14.06
2023-03-17T13:04:41.617Z,14.13
2023-03-17T13:07:07.763Z,14.22
2023-03-17T13:09:33.916Z,14.10
2023-03-17T13:12:00.343Z,14.24
2023-03-17T13:14:26.482Z,14.27
2023-03-17T13:16:52.613Z,14.33
2023-03-17T13:19:18.808Z,14.58
2023-03-17T13:21:44.936Z,15.12
2023-03-17T13:24:11.096Z,15.11
2023-03-17T13:26:37.213Z,14.89
2023-03-17T13:29:03.447Z,15.11
2023-03-17T13:31:29.740Z,14.97
2023-03-17T13:33:56.158Z,14.53
2023-03-17T13:36:22.354Z,14.48
2023-03-17T13:38:52.443Z,14.46
2023-03-17T13:41:26.298Z,14.46
2023-03-17T13:43:52.706Z,14.38
2023-03-17T13:46:18.999Z,14.14
2023-03-17T13:48:45.218Z,13.99
2023-03-17T13:51:13.193Z,13.90
2023-03-17T13:53:40.583Z,13.97
2023-03-17T13:56:06.724Z,13.85
2023-03-17T13:58:33.176Z,14.00
2023-03-17T14:00:59.641Z,13.81
2023-03-17T14:03:25.949Z,14.02
2023-03-17T14:05:52.081Z,13.87
2023-03-17T14:08:18.450Z,13.97
2023-03-17T14:10:44.658Z,14.10
2023-03-17T14:13:10.793Z,14.23
2023-03-17T14:15:37.037Z,14.44
2023-03-17T14:18:03.253Z,13.80
2023-03-17T14:20:29.453Z,13.96
2023-03-17T14:22:55.917Z,14.21
2023-03-17T14:25:22.064Z,14.27
2023-03-17T14:27:48.205Z,14.17
2023-03-17T14:30:14.319Z,14.13
2023-03-17T14:32:40.596Z,13.81
2023-03-17T14:35:06.772Z,13.90
2023-03-17T14:37:32.883Z,13.71
2023-03-17T14:39:58.978Z,13.77
2023-03-17T14:42:25.178Z,13.42
2023-03-17T14:44:51.616Z,13.04
2023-03-17T14:47:17.906Z,13.01
2023-03-17T14:49:44.323Z,12.96
2023-03-17T14:52:10.436Z,12.40
2023-03-17T14:54:36.969Z,11.43
2023-03-17T14:57:03.432Z,10.62
2023-03-17T14:59:29.689Z,10.88
2023-03-17T15:01:55.864Z,10.26
2023-03-17T15:04:22.030Z,9.67
2023-03-17T15:06:48.141Z,9.46
2023-03-17T15:09:14.607Z,8.57
2023-03-17T15:11:40.754Z,8.76
2023-03-17T15:14:07.221Z,9.15
2023-03-17T15:16:35.775Z,8.56
2023-03-17T15:19:02.039Z,8.41
2023-03-17T15:21:28.157Z,9.13
2023-03-17T15:23:54.477Z,10.02
2023-03-17T15:26:20.647Z,10.05
2023-03-17T15:28:46.806Z,9.76
2023-03-17T15:31:13.023Z,10.26
2023-03-17T15:33:39.190Z,9.30
2023-03-17T15:36:05.379Z,9.98
2023-03-17T15:38:31.598Z,9.65
2023-03-17T15:40:57.835Z,9.51
2023-03-17T15:43:24.014Z,8.70
2023-03-17T15:45:50.194Z,9.10
2023-03-17T15:48:16.327Z,8.76
2023-03-17T15:50:42.496Z,8.52
2023-03-17T15:53:08.605Z,8.75
2023-03-17T15:55:35.033Z,8.42
2023-03-17T15:58:01.347Z,8.33
2023-03-17T16:00:27.498Z,7.91
2023-03-17T16:02:53.714Z,7.79
2023-03-17T16:05:19.962Z,7.34
2023-03-17T16:07:46.254Z,7.21
2023-03-17T16:10:12.423Z,7.33
2023-03-17T16:12:38.582Z,7.32
2023-03-17T16:15:13.211Z,7.34
2023-03-17T16:17:46.630Z,7.17
2023-03-17T16:20:12.786Z,7.31
2023-03-17T16:22:38.958Z,7.34
2023-03-17T16:25:06.128Z,7.25
2023-03-17T16:27:32.280Z,7.23
2023-03-17T16:29:58.738Z,6.00
2023-03-17T16:32:25.215Z,6.45
2023-03-17T16:34:51.359Z,6.37
2023-03-17T16:37:17.842Z,6.42
2023-03-17T16:39:44.092Z,6.15
2023-03-17T16:42:10.359Z,5.80
2023-03-17T16:44:36.566Z,5.42
2023-03-17T16:47:03.008Z,5.24
2023-03-17T16:49:29.215Z,5.11
2023-03-17T16:51:55.536Z,5.24
2023-03-17T16:54:21.842Z,5.07
2023-03-17T16:56:48.147Z,4.82
2023-03-17T16:59:14.624Z,4.89
2023-03-17T17:01:40.830Z,4.86
2023-03-17T17:04:07.090Z,4.86
2023-03-17T17:06:33.350Z,4.58
2023-03-17T17:08:59.543Z,4.56
2023-03-17T17:11:25.682Z,4.73
2023-03-17T17:13:51.860Z,4.73
2023-03-17T17:16:18.110Z,5.39
2023-03-17T17:18:44.710Z,5.30
2023-03-17T17:21:10.816Z,4.85
2023-03-17T17:23:36.928Z,4.61
2023-03-17T17:26:03.095Z,4.54
2023-03-17T17:28:29.337Z,4.14
2023-03-17T17:30:55.519Z,4.48
2023-03-17T17:33:21.673Z,4.28
2023-03-17T17:35:47.852Z,3.97
2023-03-17T17:38:14.048Z,3.93
2023-03-17T17:40:40.318Z,4.02
2023-03-17T17:43:06.720Z,4.31
2023-03-17T17:45:32.903Z,3.63
2023-03-17T17:47:59.146Z,3.53
2023-03-17T17:50:25.385Z,3.78
2023-03-17T17:52:51.564Z,3.96
2023-03-17T17:55:17.827Z,4.25
2023-03-17T17:57:44.292Z,4.15
2023-03-17T18:00:10.539Z,3.53
2023-03-17T18:02:36.713Z,3.26
2023-03-17T18:05:03.159Z,3.08
2023-03-17T18:07:29.318Z,3.20
2023-03-17T18:09:55.525Z,3.28
2023-03-17T18:12:21.636Z,3.25
2023-03-17T18:14:47.739Z,3.98
2023-03-17T18:17:13.890Z,3.42
2023-03-17T18:19:40.199Z,3.39
2023-03-17T18:22:06.370Z,3.42
2023-03-17T18:24:32.805Z,3.38
2023-03-17T18:26:58.957Z,3.22
2023-03-17T18:29:25.182Z,3.11
2023-03-17T18:31:51.652Z,3.69
2023-03-17T18:34:18.031Z,3.52
2023-03-17T18:36:44.465Z,2.95
2023-03-17T18:39:10.718Z,2.84
2023-03-17T18:41:36.879Z,2.71
2023-03-17T18:44:03.184Z,2.67
2023-03-17T18:46:29.293Z,2.59
2023-03-17T18:48:55.505Z,2.58
2023-03-17T18:51:21.688Z,2.83
2023-03-17T18:53:47.803Z,2.65
2023-03-17T18:56:14.104Z,2.46
2023-03-17T18:58:40.202Z,2.73
2023-03-17T19:01:06.377Z,3.14
2023-03-17T19:03:32.901Z,3.24
2023-03-17T19:05:59.100Z,2.61
2023-03-17T19:08:25.237Z,2.12
2023-03-17T19:10:51.668Z,2.24
2023-03-17T19:13:18.071Z,2.26
2023-03-17T19:15:44.362Z,2.23
2023-03-17T19:18:10.528Z,2.32
2023-03-17T19:20:36.982Z,2.41
2023-03-17T19:23:03.169Z,2.04
2023-03-17T19:25:29.282Z,1.78
2023-03-17T19:27:55.410Z,1.68
2023-03-17T19:30:21.566Z,2.04
2023-03-17T19:32:47.744Z,2.19
2023-03-17T19:35:14.202Z,2.48
2023-03-17T19:37:40.403Z,2.50
2023-03-17T19:40:06.726Z,2.56
2023-03-17T19:42:32.857Z,2.39
2023-03-17T19:44:59.008Z,2.07
2023-03-17T19:47:25.133Z,1.86
2023-03-17T19:49:51.567Z,1.86
2023-03-17T19:52:18.007Z,1.80
2023-03-17T19:54:44.128Z,1.36
2023-03-17T19:57:10.248Z,1.88
2023-03-17T19:59:36.406Z,2.09
2023-03-17T20:02:02.616Z,1.93
2023-03-17T20:04:29.137Z,1.55
2023-03-17T20:06:55.433Z,1.19
2023-03-17T20:09:22.009Z,1.36
2023-03-17T20:11:48.161Z,1.32
2023-03-17T20:14:14.336Z,1.16
2023-03-17T20:16:41.546Z,1.09
2023-03-17T20:19:07.877Z,1.31
2023-03-17T20:21:34.019Z,1.37
2023-03-17T20:24:01.418Z,1.32
2023-03-17T20:26:27.540Z,0.97
2023-03-17T20:28:53.690Z,0.95
2023-03-17T20:31:19.912Z,1.28
2023-03-17T20:33:46.421Z,1.06
2023-03-17T20:36:13.025Z,1.09
2023-03-17T20:38:39.158Z,0.82
2023-03-17T20:41:05.288Z,0.66
2023-03-17T20:43:31.383Z,0.75
2023-03-17T20:45:57.593Z,1.30
2023-03-17T20:48:24.038Z,1.11
2023-03-17T20:50:50.199Z,1.51
2023-03-17T20:53:16.512Z,1.60
2023-03-17T20:55:42.666Z,1.24
2023-03-17T20:58:08.817Z,0.89
2023-03-17T21:00:34.934Z,0.82
2023-03-17T21:03:01.169Z,0.67
2023-03-17T21:05:27.691Z,0.57
2023-03-17T21:07:53.852Z,0.81
2023-03-17T21:10:20.088Z,1.00
2023-03-17T21:12:46.233Z,0.94
2023-03-17T21:15:12.704Z,0.99
2023-03-17T21:17:38.843Z,0.85
2023-03-17T21:20:05.329Z,0.64
2023-03-17T21:22:31.790Z,0.69
2023-03-17T21:24:57.952Z,0.53
2023-03-17T21:27:24.065Z,0.43
2023-03-17T21:29:50.216Z,0.57
2023-03-17T21:32:16.328Z,0.59
2023-03-17T21:34:42.454Z,0.95
2023-03-17T21:37:08.614Z,1.01
2023-03-17T21:39:34.856Z,0.95
2023-03-17T21:42:00.963Z,0.79
2023-03-17T21:44:27.091Z,0.63
2023-03-17T21:46:53.257Z,0.62
2023-03-17T21:49:19.551Z,0.70
2023-03-17T21:51:45.679Z,1.03
2023-03-17T21:54:11.813Z,1.35
2023-03-17T21:56:37.941Z,1.30
2023-03-17T21:59:04.127Z,0.93
2023-03-17T22:01:30.607Z,0.26
2023-03-17T22:03:56.859Z,0.33
2023-03-17T22:06:23.000Z,0.44
2023-03-17T22:08:49.461Z,0.38
2023-03-17T22:11:15.616Z,0.34
2023-03-17T22:13:41.740Z,0.73
2023-03-17T22:16:07.913Z,0.50
2023-03-17T22:18:34.248Z,0.66
2023-03-17T22:21:00.478Z,0.88
2023-03-17T22:23:26.947Z,0.93
2023-03-17T22:25:53.245Z,1.14
2023-03-17T22:28:19.416Z,1.02
2023-03-17T22:30:45.559Z,1.17
2023-03-17T22:33:12.016Z,1.56
2023-03-17T22:35:38.247Z,1.58
2023-03-17T22:38:04.418Z,1.10
2023-03-17T22:40:31.189Z,0.85
2023-03-17T22:42:57.515Z,1.14
2023-03-17T22:45:23.616Z,1.02
2023-03-17T22:47:49.802Z,1.23
2023-03-17T22:50:15.942Z,1.23
2023-03-17T22:52:42.420Z,0.82
2023-03-17T22:55:08.529Z,0.67
2023-03-17T22:57:34.665Z,0.43
2023-03-17T23:00:01.087Z,0.75
2023-03-17T23:02:27.190Z,1.07
2023-03-17T23:04:53.386Z,0.16
2023-03-17T23:07:19.657Z,0.32
2023-03-17T23:09:45.880Z,0.48
2023-03-17T23:12:12.315Z,0.45
2023-03-17T23:14:38.440Z,0.65
2023-03-17T23:17:04.626Z,0.61
2023-03-17T23:19:30.799Z,0.73
2023-03-17T23:21:56.949Z,0.96
2023-03-17T23:24:23.109Z,1.04
2023-03-17T23:26:49.250Z,1.16
2023-03-17T23:31:41.553Z,1.20
2023-03-17T23:34:07.721Z,1.30
2023-03-17T23:36:33.968Z,1.33
2023-03-17T23:39:00.238Z,1.30
2023-03-17T23:41:26.378Z,1.30
2023-03-17T23:43:52.624Z,1.31
2023-03-17T23:46:19.085Z,1.02
2023-03-17T23:48:45.254Z,0.86
2023-03-17T23:51:11.743Z,0.41
2023-03-17T23:53:37.892Z,1.01
2023-03-17T23:56:04.203Z,0.45
2023-03-17T23:58:30.637Z,0.88
